Forside
METAR-TAF:

METAR-TAF

Lufthavne :

Uherské Hradiště, Tjekkiet

Breddekreds: 49-01-46N, længdekreds: 017-26-23E, højde: 177 m

Aktuelle vejr

Denne rapport blev lavet for 7 timer og 48 minutter siden, kl. 16:00 UTC
Vind 3 kt fra nordnordøst, varierende mellem nord og østnordøst
Temperatur 20°C
Fugtighed 43%
Tryk 1028 hPa
Sigt 10 km eller mere
ingen skyer under 1500m og ingen cumulonimbus

METAR: LKKU 121600Z 03003KT 360V070 CAVOK 20/07 Q1028

Tid: 01:48 (23:48 UTC)


TAF: fraværende

Vejrobservationer og prognoser fra mere end 4000 lufthavne (METAR og TAF).

De gule og røde prikker repræsenterer de meteorologiske stationer.

Flyt musen over at se navnet på stationen.

Så klik over at se vejr observationer og prognoser.

At skifte det kort: Klik på de grønne knapper med et sort kors for at zoome ind; på den grønne knap med en bindestreg for at zoome ud; eller på de grønne pile for tilstødende kort.


METAR-TAF: